Time;durP1;ratioP1;P1;durP2;ratioP2;P2;SDS_P1;SDS_P2;PMS_P1;PMS_P2;Temp;Humidity;BMP_temperature;BMP_pressure;BME280_temperature;BME280_humidity;BME280_pressure;Samples;Min_cycle;Max_cycle;Signal;HPM_P1;HPM_P2
2023/12/20 00:00:45;;;;;;;0.70;0.70;;;6.90;99.90;6.00;99161;;;;594118;240;24056;-89
2023/12/20 00:03:17;;;;;;;1.60;1.00;;;6.90;99.90;6.00;99154;;;;606004;235;24049;-89
2023/12/20 00:05:41;;;;;;;0.83;0.80;;;6.80;99.90;6.00;99153;;;;584091;242;25116;-90
2023/12/20 00:08:12;;;;;;;1.30;0.70;;;6.80;99.90;6.00;99151;;;;595845;237;24031;-90
2023/12/20 00:10:38;;;;;;;0.60;0.60;;;6.80;99.90;6.00;99153;;;;584746;241;24102;-89
2023/12/20 00:13:10;;;;;;;7.70;0.83;;;6.80;99.90;6.00;99160;;;;591844;238;24115;-89
2023/12/20 00:15:38;;;;;;;1.10;1.10;;;6.80;99.90;6.00;99157;;;;598554;238;24061;-90
2023/12/20 00:18:07;;;;;;;1.17;0.73;;;6.80;99.90;5.90;99169;;;;591514;238;24118;-90
2023/12/20 00:20:31;;;;;;;1.23;0.60;;;6.80;99.90;6.00;99161;;;;600661;238;24094;-89
2023/12/20 00:23:02;;;;;;;0.97;0.80;;;6.80;99.90;6.00;99166;;;;590098;238;24058;-90
2023/12/20 00:25:31;;;;;;;0.87;0.60;;;6.80;99.90;6.00;99178;;;;591535;238;24036;-88
2023/12/20 00:28:00;;;;;;;2.22;1.35;;;6.80;99.90;6.00;99170;;;;587000;238;34836;-89
2023/12/20 00:30:25;;;;;;;1.43;1.00;;;6.80;99.90;6.00;99174;;;;591816;239;24057;-90
2023/12/20 00:32:53;;;;;;;1.60;0.60;;;6.80;99.90;6.00;99181;;;;594167;239;24041;-90
2023/12/20 00:35:25;;;;;;;1.07;0.90;;;6.80;99.90;6.00;99175;;;;591937;239;24045;-89
2023/12/20 00:37:51;;;;;;;1.83;0.77;;;6.80;99.90;6.00;99166;;;;591604;239;24055;-90
2023/12/20 00:40:22;;;;;;;0.50;0.50;;;6.80;99.90;5.90;99169;;;;590423;239;24048;-89
2023/12/20 00:42:50;;;;;;;1.43;0.47;;;6.70;99.90;5.80;99183;;;;591736;239;24047;-89
2023/12/20 00:45:15;;;;;;;0.40;0.40;;;6.70;99.90;5.80;99172;;;;601467;239;24052;-90
2023/12/20 00:47:46;;;;;;;1.17;0.40;;;6.60;99.90;5.80;99179;;;;591966;239;24061;-91
2023/12/20 00:50:14;;;;;;;0.40;0.40;;;6.60;99.90;5.70;99185;;;;591557;239;24092;-88
2023/12/20 00:52:43;;;;;;;0.40;0.40;;;6.50;99.90;5.70;99184;;;;591460;239;24042;-89
2023/12/20 00:57:39;;;;;;;0.23;0.10;;;6.50;99.90;5.60;99181;;;;594747;237;24089;-89
2023/12/20 01:00:09;;;;;;;1.37;0.40;;;6.50;99.90;5.50;99182;;;;593970;242;24055;-89
2023/12/20 01:02:46;;;;;;;0.40;0.40;;;6.30;99.90;5.50;99173;;;;593032;239;24110;-88
2023/12/20 01:05:09;;;;;;;0.10;0.10;;;6.30;99.90;5.50;99166;;;;584987;241;24061;-87
2023/12/20 01:07:40;;;;;;;0.10;0.10;;;6.40;99.90;5.40;99163;;;;592361;241;23971;-88
2023/12/20 01:10:11;;;;;;;0.30;0.30;;;6.30;99.90;5.40;99170;;;;591200;240;24106;-89
2023/12/20 01:12:35;;;;;;;0.13;0.13;;;6.20;99.90;5.30;99167;;;;592995;238;24047;-89
2023/12/20 01:15:09;;;;;;;1.40;0.27;;;6.20;99.90;5.30;99172;;;;587832;237;24035;-88
2023/12/20 01:17:37;;;;;;;0.40;0.40;;;6.20;99.90;5.20;99164;;;;585867;241;23983;-89
2023/12/20 01:20:04;;;;;;;0.83;0.30;;;6.10;99.90;5.10;99167;;;;594223;241;24245;-89
2023/12/20 01:22:36;;;;;;;0.10;0.10;;;6.00;99.90;5.00;99175;;;;585074;241;24103;-90
2023/12/20 01:25:04;;;;;;;1.93;0.67;;;6.00;99.90;5.00;99179;;;;585444;242;24077;-90
2023/12/20 01:27:31;;;;;;;1.00;0.50;;;5.90;99.90;4.90;99176;;;;602198;235;24033;-88
2023/12/20 01:29:56;;;;;;;0.50;0.50;;;5.80;99.90;4.80;99173;;;;594914;238;24173;-89
2023/12/20 01:32:26;;;;;;;0.70;0.70;;;5.70;99.90;4.80;99162;;;;600796;238;24076;-89
2023/12/20 01:34:54;;;;;;;0.27;0.27;;;5.70;99.90;4.80;99167;;;;593868;238;24015;-88
2023/12/20 01:37:23;;;;;;;0.87;0.40;;;5.70;99.90;4.80;99170;;;;602963;237;24031;-87
2023/12/20 01:39:53;;;;;;;2.23;0.20;;;5.70;99.90;4.80;99158;;;;596040;237;24028;-87
2023/12/20 01:42:19;;;;;;;0.20;0.20;;;5.70;99.90;4.90;99161;;;;603834;237;24027;-87
2023/12/20 01:44:47;;;;;;;2.47;0.40;;;5.70;99.90;4.90;99159;;;;597583;237;23999;-87
2023/12/20 01:47:16;;;;;;;0.13;0.13;;;5.70;99.90;4.90;99163;;;;607062;234;24075;-88
2023/12/20 01:49:49;;;;;;;1.03;0.20;;;5.80;99.90;4.80;99153;;;;597454;237;24045;-89
2023/12/20 01:52:20;;;;;;;6.47;0.50;;;5.70;99.90;4.70;99147;;;;596436;237;24036;-90
2023/12/20 01:54:49;;;;;;;0.63;0.50;;;5.60;99.90;4.60;99155;;;;596966;237;24051;-89
2023/12/20 01:57:15;;;;;;;0.75;0.70;;;5.60;99.90;4.50;99152;;;;590817;237;34860;-89
2023/12/20 01:59:44;;;;;;;2.30;1.20;;;5.40;99.90;4.40;99150;;;;605732;237;24047;-90
2023/12/20 02:02:12;;;;;;;4.37;0.70;;;5.40;99.90;4.30;99148;;;;596269;237;24055;-89
2023/12/20 02:04:42;;;;;;;2.13;0.60;;;5.30;99.90;4.20;99148;;;;606375;237;24031;-89
2023/12/20 02:07:11;;;;;;;2.13;0.77;;;5.20;99.90;4.10;99135;;;;595289;237;24105;-89
2023/12/20 02:09:39;;;;;;;0.97;0.40;;;5.10;99.90;4.10;99148;;;;602647;235;24051;-89
2023/12/20 02:12:07;;;;;;;0.67;0.67;;;5.00;99.90;4.00;99143;;;;596553;237;24044;-87
2023/12/20 02:14:35;;;;;;;0.83;0.73;;;4.90;99.90;3.90;99146;;;;596303;237;24048;-88
2023/12/20 02:17:02;;;;;;;0.53;0.53;;;4.90;99.90;3.90;99145;;;;601623;237;24041;-88
2023/12/20 02:19:32;;;;;;;2.57;1.50;;;4.80;99.90;3.80;99141;;;;598610;236;24080;-88
2023/12/20 02:22:10;;;;;;;0.90;0.80;;;4.80;99.90;3.80;99149;;;;597490;236;24047;-87
2023/12/20 02:24:34;;;;;;;5.43;1.70;;;4.70;99.90;3.80;99153;;;;596639;237;24058;-87
2023/12/20 02:27:05;;;;;;;4.80;1.47;;;4.70;99.90;3.80;99160;;;;597323;237;24009;-88
2023/12/20 02:29:30;;;;;;;7.50;1.10;;;4.70;99.90;3.80;99162;;;;596999;237;24123;-89
2023/12/20 02:31:58;;;;;;;2.03;0.73;;;4.70;99.90;3.80;99152;;;;597264;237;24036;-87
2023/12/20 02:34:26;;;;;;;2.00;0.77;;;4.80;99.90;3.80;99147;;;;596702;237;24083;-88
2023/12/20 02:36:54;;;;;;;1.40;0.90;;;4.70;99.90;3.70;99149;;;;597110;237;24038;-89
2023/12/20 02:39:22;;;;;;;2.00;0.80;;;4.70;99.90;3.70;99152;;;;596332;237;24014;-89
2023/12/20 02:41:50;;;;;;;0.60;0.60;;;4.60;99.90;3.70;99158;;;;596746;237;24081;-88
2023/12/20 02:44:18;;;;;;;1.50;0.97;;;4.60;99.90;3.60;99146;;;;596271;237;24035;-89
2023/12/20 02:46:48;;;;;;;7.20;1.60;;;4.60;99.90;3.60;99151;;;;596150;237;24105;-88
2023/12/20 02:49:19;;;;;;;5.47;1.10;;;4.60;99.90;3.60;99141;;;;596890;237;24064;-89
2023/12/20 02:51:47;;;;;;;5.40;1.23;;;4.60;99.90;3.60;99141;;;;602101;237;24038;-88
2023/12/20 02:54:13;;;;;;;9.60;1.17;;;4.60;99.90;3.70;99139;;;;601175;236;24085;-89
2023/12/20 02:56:40;;;;;;;4.73;1.37;;;4.60;99.90;3.70;99136;;;;596144;237;24018;-88
2023/12/20 02:59:14;;;;;;;4.30;0.97;;;4.60;99.90;3.70;99126;;;;601224;237;24046;-88
2023/12/20 03:01:45;;;;;;;2.67;1.40;;;4.60;99.90;3.70;99122;;;;605260;237;24102;-90
2023/12/20 03:04:10;;;;;;;3.40;1.10;;;4.60;99.90;3.70;99120;;;;595932;237;24036;-90
2023/12/20 03:06:41;;;;;;;7.67;1.10;;;4.60;99.90;3.70;99117;;;;591121;237;34951;-90
2023/12/20 03:09:11;;;;;;;5.27;1.23;;;4.60;99.90;3.70;99104;;;;590794;237;34899;-89
2023/12/20 03:11:39;;;;;;;5.53;1.37;;;4.60;99.90;3.70;99108;;;;590830;237;34989;-89
2023/12/20 03:14:11;;;;;;;2.57;0.80;;;4.60;99.90;3.60;99107;;;;594580;237;24049;-88
2023/12/20 03:16:36;;;;;;;3.70;0.77;;;4.60;99.90;3.60;99117;;;;600707;237;24056;-89
2023/12/20 03:19:05;;;;;;;5.63;1.83;;;4.50;99.90;3.50;99113;;;;595854;237;24036;-89
2023/12/20 03:21:34;;;;;;;3.63;0.70;;;4.50;99.90;3.40;99118;;;;595571;237;24058;-89
2023/12/20 03:24:02;;;;;;;3.17;1.20;;;4.40;99.90;3.30;99112;;;;595746;237;24017;-89
2023/12/20 03:26:30;;;;;;;5.33;1.50;;;4.30;99.90;3.20;99115;;;;605476;237;24047;-88
2023/12/20 03:29:01;;;;;;;5.93;1.25;;;4.20;99.90;3.20;99112;;;;589181;235;35088;-88
2023/12/20 03:31:29;;;;;;;7.87;1.43;;;4.20;99.90;3.10;99102;;;;602483;236;24073;-89
2023/12/20 03:33:54;;;;;;;1.60;0.57;;;4.10;99.90;3.00;99108;;;;596727;237;24090;-89
2023/12/20 03:36:26;;;;;;;2.73;1.00;;;4.00;99.90;3.00;99101;;;;596636;237;24033;-90
2023/12/20 03:38:54;;;;;;;1.60;0.63;;;4.00;99.90;3.10;99107;;;;605653;236;24071;-89
2023/12/20 03:41:18;;;;;;;4.03;1.03;;;4.00;99.90;3.10;99103;;;;596189;237;24041;-89
2023/12/20 03:43:46;;;;;;;3.07;1.37;;;4.10;99.90;3.20;99106;;;;596526;237;24021;-90
2023/12/20 03:46:15;;;;;;;3.70;1.57;;;4.20;99.90;3.30;99115;;;;596461;237;24053;-89
2023/12/20 03:48:46;;;;;;;5.40;1.53;;;4.20;99.90;3.30;99106;;;;596748;237;24041;-90
2023/12/20 03:51:12;;;;;;;2.37;1.47;;;4.40;99.90;3.40;99118;;;;594032;237;24049;-89
2023/12/20 03:53:40;;;;;;;4.50;1.53;;;4.40;99.90;3.40;99112;;;;596564;237;24035;-89
2023/12/20 03:56:08;;;;;;;2.60;1.33;;;4.40;99.90;3.40;99112;;;;595031;237;24023;-89
2023/12/20 03:58:40;;;;;;;6.30;1.07;;;4.40;99.90;3.40;99112;;;;596219;237;24065;-89
2023/12/20 04:01:06;;;;;;;7.67;1.47;;;4.40;99.90;3.40;99127;;;;596063;237;24064;-88
2023/12/20 04:03:34;;;;;;;6.70;1.40;;;4.40;99.90;3.30;99120;;;;605252;237;24051;-89
2023/12/20 04:06:06;;;;;;;8.30;1.80;;;4.30;99.90;3.30;99117;;;;591282;237;35043;-88
2023/12/20 04:08:33;;;;;;;9.65;1.87;;;4.30;99.90;3.20;99114;;;;590221;235;34932;-89
2023/12/20 04:10:58;;;;;;;7.72;1.95;;;4.20;99.90;3.20;99112;;;;595574;237;34920;-89
2023/12/20 04:13:29;;;;;;;4.17;0.90;;;4.10;99.90;3.10;99117;;;;596182;237;24068;-89
2023/12/20 04:15:59;;;;;;;2.10;0.67;;;4.10;99.90;3.00;99110;;;;595854;237;24023;-88
2023/12/20 04:18:28;;;;;;;4.73;0.67;;;4.10;99.90;3.00;99108;;;;605080;237;24057;-89
2023/12/20 04:20:56;;;;;;;4.83;0.90;;;4.00;99.90;3.00;99115;;;;601798;237;24041;-89
2023/12/20 04:23:20;;;;;;;1.03;0.80;;;4.00;99.90;2.90;99104;;;;605132;237;24055;-89
2023/12/20 04:25:51;;;;;;;6.13;1.43;;;3.90;99.90;2.80;99110;;;;595758;237;24042;-89
2023/12/20 04:28:16;;;;;;;11.70;1.70;;;3.80;99.90;2.80;99114;;;;596415;237;24000;-89
2023/12/20 04:30:44;;;;;;;3.83;1.43;;;3.80;99.90;2.70;99112;;;;596874;237;24024;-89
2023/12/20 04:33:16;;;;;;;3.97;1.53;;;3.70;99.90;2.70;99113;;;;597403;237;24028;-88
2023/12/20 04:35:46;;;;;;;7.00;2.00;;;3.70;99.90;2.60;99111;;;;606717;237;24040;-87
2023/12/20 04:38:14;;;;;;;5.50;1.63;;;3.60;99.90;2.60;99114;;;;597180;237;24024;-89
2023/12/20 04:40:40;;;;;;;9.33;2.10;;;3.60;99.90;2.50;99126;;;;596798;235;24083;-89
2023/12/20 04:43:10;;;;;;;5.07;1.87;;;3.50;99.90;2.40;99113;;;;597721;236;24027;-91
2023/12/20 04:45:38;;;;;;;4.50;1.90;;;3.50;99.90;2.40;99117;;;;602526;237;24050;-88
2023/12/20 04:48:06;;;;;;;6.17;1.97;;;3.40;99.90;2.40;99116;;;;596497;237;24017;-89
2023/12/20 04:50:35;;;;;;;8.63;1.97;;;3.30;99.90;2.30;99116;;;;596459;237;24104;-89
2023/12/20 04:52:59;;;;;;;11.83;2.43;;;3.30;99.90;2.20;99116;;;;596380;237;24059;-89
2023/12/20 04:55:30;;;;;;;7.20;2.07;;;3.30;99.90;2.20;99112;;;;596749;237;24024;-90
2023/12/20 04:57:56;;;;;;;7.87;2.57;;;3.20;99.90;2.10;99118;;;;597417;237;24066;-88
2023/12/20 05:00:27;;;;;;;9.60;2.50;;;3.20;99.90;2.10;99121;;;;602428;237;24043;-89
2023/12/20 05:02:54;;;;;;;7.03;2.27;;;3.20;99.90;2.10;99121;;;;606097;237;25081;-90
2023/12/20 05:05:22;;;;;;;8.40;2.73;;;3.10;99.90;2.10;99126;;;;602052;237;24029;-89
2023/12/20 05:07:52;;;;;;;8.00;2.60;;;3.10;99.90;2.00;99112;;;;597174;237;24050;-88
2023/12/20 05:10:24;;;;;;;9.40;3.13;;;3.00;99.90;2.00;99116;;;;597190;237;24001;-88
2023/12/20 05:12:52;;;;;;;11.00;2.83;;;3.00;99.90;2.00;99115;;;;603696;237;24048;-89
2023/12/20 05:15:25;;;;;;;7.13;2.67;;;3.00;99.90;1.90;99119;;;;596879;237;24167;-89
2023/12/20 05:17:52;;;;;;;5.97;2.47;;;2.90;99.90;1.90;99115;;;;601271;237;24052;-90
2023/12/20 05:20:20;;;;;;;6.33;2.20;;;2.90;99.90;1.90;99110;;;;601349;237;24055;-89
2023/12/20 05:22:48;;;;;;;8.27;3.10;;;2.90;99.90;1.80;99114;;;;596248;237;24033;-89
2023/12/20 05:25:16;;;;;;;10.40;3.67;;;2.80;99.90;1.80;99112;;;;602350;236;25477;-88
2023/12/20 05:27:48;;;;;;;15.07;5.53;;;2.80;99.90;1.80;99117;;;;596261;237;24024;-90
2023/12/20 05:30:16;;;;;;;18.73;6.50;;;2.80;99.90;1.70;99117;;;;595604;237;24036;-89
2023/12/20 05:32:45;;;;;;;20.17;7.77;;;2.70;99.90;1.70;99113;;;;595787;237;24031;-89
2023/12/20 05:35:12;;;;;;;13.60;6.30;;;2.80;99.90;1.70;99106;;;;604800;237;24041;-88
2023/12/20 05:37:42;;;;;;;9.00;4.63;;;2.70;99.90;1.70;99107;;;;602980;236;24032;-89
2023/12/20 05:40:10;;;;;;;11.53;4.53;;;2.70;99.90;1.70;99101;;;;594019;237;24058;-89
2023/12/20 05:42:34;;;;;;;7.13;3.13;;;2.70;99.90;1.70;99108;;;;594845;237;24070;-88
2023/12/20 05:45:06;;;;;;;12.10;4.07;;;2.70;99.90;1.60;99096;;;;596013;237;24037;-89
2023/12/20 05:47:31;;;;;;;10.70;4.23;;;2.70;99.90;1.60;99096;;;;600600;237;24047;-88
2023/12/20 05:50:01;;;;;;;7.60;3.63;;;2.70;99.90;1.60;99105;;;;595790;237;24295;-89
2023/12/20 05:52:29;;;;;;;8.13;3.53;;;2.60;99.90;1.60;99107;;;;601401;236;24032;-89
2023/12/20 05:55:00;;;;;;;11.37;4.43;;;2.60;99.90;1.60;99098;;;;597264;236;24072;-90
2023/12/20 05:57:25;;;;;;;13.85;4.90;;;2.60;99.90;1.60;99097;;;;591725;237;35058;-90
2023/12/20 05:59:53;;;;;;;11.97;3.00;;;2.60;99.90;1.50;99097;;;;596298;237;24048;-90
2023/12/20 06:02:21;;;;;;;9.27;3.17;;;2.60;99.90;1.50;99099;;;;596533;237;24044;-88
2023/12/20 06:04:50;;;;;;;9.33;2.67;;;2.50;99.90;1.50;99083;;;;596740;237;24027;-89
2023/12/20 06:07:20;;;;;;;9.10;2.60;;;2.50;99.90;1.50;99086;;;;594700;237;24030;-89
2023/12/20 06:09:50;;;;;;;6.00;2.10;;;2.60;99.90;1.50;99090;;;;596221;237;24075;-88
2023/12/20 06:12:17;;;;;;;7.27;2.20;;;2.60;99.90;1.50;99086;;;;593883;237;24087;-89
2023/12/20 06:14:48;;;;;;;6.47;3.27;;;2.60;99.90;1.50;99071;;;;595421;237;24027;-89
2023/12/20 06:17:13;;;;;;;6.43;2.60;;;2.60;99.90;1.50;99083;;;;596556;237;24039;-89
2023/12/20 06:19:44;;;;;;;10.97;2.27;;;2.50;99.90;1.50;99080;;;;601909;237;24087;-89
2023/12/20 06:22:12;;;;;;;7.10;2.10;;;2.50;99.90;1.50;99073;;;;601210;237;24150;-90
2023/12/20 06:24:37;;;;;;;7.33;2.30;;;2.50;99.90;1.50;99077;;;;605728;237;24051;-89
2023/12/20 06:27:09;;;;;;;5.30;2.03;;;2.50;99.90;1.50;99073;;;;596746;237;24031;-89
2023/12/20 06:29:37;;;;;;;3.80;1.30;;;2.50;99.90;1.50;99067;;;;591331;237;35009;-90
2023/12/20 06:32:08;;;;;;;6.30;1.70;;;2.50;99.90;1.50;99069;;;;596618;237;24050;-89
2023/12/20 06:34:32;;;;;;;3.20;1.70;;;2.50;99.90;1.50;99059;;;;601541;237;24134;-89
2023/12/20 06:37:03;;;;;;;6.87;2.10;;;2.50;99.90;1.50;99057;;;;596732;237;24069;-89
2023/12/20 06:39:30;;;;;;;7.10;2.10;;;2.50;99.90;1.40;99043;;;;596019;237;24039;-90
2023/12/20 06:41:56;;;;;;;7.17;2.70;;;2.50;99.90;1.40;99044;;;;594439;237;24044;-89
2023/12/20 06:44:24;;;;;;;4.90;2.47;;;2.50;99.90;1.40;99040;;;;594395;237;24051;-88
2023/12/20 06:46:55;;;;;;;12.63;2.10;;;2.40;99.90;1.40;99040;;;;596427;237;24020;-89
2023/12/20 06:49:24;;;;;;;6.80;2.33;;;2.40;99.90;1.30;99042;;;;596142;237;24057;-88
2023/12/20 06:51:54;;;;;;;8.10;3.00;;;2.40;99.90;1.30;99040;;;;600989;237;24098;-89
2023/12/20 06:54:20;;;;;;;6.90;2.07;;;2.30;99.90;1.30;99040;;;;595535;237;24037;-88
2023/12/20 06:56:49;;;;;;;8.07;2.33;;;2.30;99.90;1.20;99053;;;;596483;237;24043;-89
2023/12/20 06:59:16;;;;;;;8.20;2.47;;;2.30;99.90;1.20;99038;;;;594570;237;24145;-89
2023/12/20 07:01:44;;;;;;;6.53;2.40;;;2.30;99.90;1.20;99029;;;;595827;237;24045;-89
2023/12/20 07:04:16;;;;;;;4.80;2.37;;;2.20;99.90;1.20;99031;;;;602154;236;24063;-89
2023/12/20 07:06:41;;;;;;;4.93;3.27;;;2.20;99.90;1.20;99042;;;;604073;236;24034;-89
2023/12/20 07:09:13;;;;;;;6.87;2.63;;;2.20;99.90;1.20;99042;;;;597128;237;24048;-88
2023/12/20 07:11:40;;;;;;;12.37;3.10;;;2.20;99.90;1.20;99061;;;;594866;237;24125;-88
2023/12/20 07:14:05;;;;;;;6.07;2.63;;;2.20;99.90;1.20;99054;;;;596727;237;24116;-90
2023/12/20 07:16:36;;;;;;;8.90;2.63;;;2.20;99.90;1.20;99048;;;;596350;237;24039;-88
2023/12/20 07:19:00;;;;;;;6.57;2.87;;;2.20;99.90;1.20;99038;;;;594540;237;24006;-88
2023/12/20 07:21:32;;;;;;;7.03;2.73;;;2.20;99.90;1.20;99042;;;;597248;237;24057;-87
2023/12/20 07:23:56;;;;;;;11.43;2.80;;;2.20;99.90;1.20;99050;;;;597118;237;24057;-87
2023/12/20 07:26:24;;;;;;;5.67;2.10;;;2.20;99.90;1.20;99034;;;;602188;237;23991;-88
2023/12/20 07:28:55;;;;;;;7.07;2.50;;;2.20;99.90;1.20;99030;;;;597996;237;24031;-88
2023/12/20 07:31:20;;;;;;;3.47;1.87;;;2.20;99.90;1.20;99033;;;;607602;233;24039;-89
2023/12/20 07:33:51;;;;;;;8.57;2.67;;;2.20;99.90;1.20;99033;;;;596272;237;25076;-89
2023/12/20 07:36:23;;;;;;;9.77;3.30;;;2.20;99.90;1.20;99033;;;;597031;237;24023;-89
2023/12/20 07:38:47;;;;;;;13.70;3.37;;;2.20;99.90;1.20;99035;;;;596484;237;24042;-88
2023/12/20 07:41:21;;;;;;;6.33;2.40;;;2.20;99.90;1.20;99039;;;;596543;237;24058;-88
2023/12/20 07:43:43;;;;;;;11.47;3.57;;;2.20;99.90;1.20;99033;;;;596198;237;24071;-90
2023/12/20 07:46:11;;;;;;;8.33;2.60;;;2.20;99.90;1.30;99024;;;;596576;237;24019;-88
2023/12/20 07:48:39;;;;;;;11.73;3.13;;;2.30;99.90;1.30;99025;;;;596278;237;24046;-90
2023/12/20 07:51:10;;;;;;;10.30;4.03;;;2.30;99.90;1.30;99018;;;;595740;237;24022;-88
2023/12/20 07:53:38;;;;;;;7.57;2.90;;;2.30;99.90;1.30;99021;;;;595134;237;24050;-89
2023/12/20 07:56:03;;;;;;;8.27;3.47;;;2.40;99.90;1.40;99009;;;;595176;237;24041;-88
2023/12/20 07:58:31;;;;;;;10.80;2.87;;;2.40;99.90;1.40;99016;;;;596484;237;24052;-89
2023/12/20 08:00:58;;;;;;;6.63;3.13;;;2.40;99.90;1.40;99013;;;;596540;237;24102;-88
2023/12/20 08:03:26;;;;;;;4.07;2.47;;;2.40;99.90;1.40;99006;;;;595485;237;24025;-89
2023/12/20 08:05:54;;;;;;;5.53;2.10;;;2.40;99.90;1.40;99016;;;;596179;237;24029;-90
2023/12/20 08:08:22;;;;;;;6.30;2.57;;;2.50;99.90;1.50;98992;;;;595465;235;24071;-89
2023/12/20 08:10:50;;;;;;;7.17;2.50;;;2.50;99.90;1.50;98994;;;;596549;237;24096;-90
2023/12/20 08:13:19;;;;;;;4.67;2.60;;;2.50;99.90;1.50;98989;;;;595967;237;24014;-88
2023/12/20 08:15:47;;;;;;;5.83;2.37;;;2.50;99.90;1.50;98995;;;;596489;236;24101;-88
2023/12/20 08:18:15;;;;;;;7.40;2.87;;;2.50;99.90;1.60;98990;;;;602542;236;24030;-90
2023/12/20 08:20:47;;;;;;;10.37;3.00;;;2.60;99.90;1.60;99001;;;;597017;237;24026;-89
2023/12/20 08:23:14;;;;;;;4.60;2.70;;;2.60;99.90;1.60;98996;;;;605867;237;24054;-89
2023/12/20 08:25:43;;;;;;;5.13;2.10;;;2.70;99.90;1.70;98999;;;;605921;233;24041;-89
2023/12/20 08:28:10;;;;;;;8.63;2.77;;;2.60;99.90;1.80;99002;;;;605797;237;24132;-88
2023/12/20 08:30:36;;;;;;;3.80;2.73;;;2.70;99.90;1.80;98998;;;;596186;237;24043;-90
2023/12/20 08:33:11;;;;;;;7.17;2.53;;;2.80;99.90;1.90;99003;;;;595079;237;24035;-88
2023/12/20 08:35:34;;;;;;;7.67;2.30;;;2.80;99.90;1.90;98992;;;;596280;237;24042;-88
2023/12/20 08:38:05;;;;;;;3.17;2.00;;;2.90;99.90;2.00;98990;;;;596501;237;24079;-89
2023/12/20 08:40:30;;;;;;;4.80;1.87;;;3.00;99.90;2.10;98988;;;;605814;234;24045;-89
2023/12/20 08:42:58;;;;;;;7.53;2.17;;;3.10;99.90;2.20;98986;;;;596892;237;24027;-88
2023/12/20 08:45:25;;;;;;;5.20;1.77;;;3.20;99.90;2.40;98986;;;;596968;237;24077;-88
2023/12/20 08:47:53;;;;;;;4.97;1.80;;;3.30;99.90;2.50;98971;;;;596903;237;24038;-88
2023/12/20 08:50:21;;;;;;;4.93;1.50;;;3.70;99.90;2.70;98971;;;;596967;237;24031;-87
2023/12/20 08:52:49;;;;;;;1.63;1.07;;;3.60;99.90;2.90;98981;;;;596986;237;24025;-85
2023/12/20 08:55:18;;;;;;;6.03;1.17;;;3.80;99.90;3.10;98972;;;;597145;237;24011;-88
2023/12/20 08:57:45;;;;;;;0.40;0.40;;;4.00;99.90;3.30;98972;;;;595018;237;24019;-86
2023/12/20 09:00:16;;;;;;;1.70;0.80;;;4.20;99.90;3.50;98966;;;;595931;237;24104;-89
2023/12/20 09:02:44;;;;;;;2.73;0.60;;;4.40;99.90;3.70;98973;;;;595740;237;24029;-88
2023/12/20 09:05:10;;;;;;;5.70;0.87;;;4.80;99.90;3.90;98967;;;;595345;237;25098;-88
2023/12/20 09:07:38;;;;;;;1.90;1.20;;;4.80;99.90;4.00;98966;;;;595955;237;24040;-87
2023/12/20 09:10:09;;;;;;;0.73;0.70;;;5.00;99.90;4.10;98957;;;;596160;237;24046;-88
2023/12/20 09:12:34;;;;;;;3.40;0.90;;;5.10;99.90;4.20;98966;;;;595234;237;24108;-89
2023/12/20 09:15:02;;;;;;;6.53;0.60;;;5.20;99.90;4.30;98971;;;;595536;237;24032;-88
2023/12/20 09:17:29;;;;;;;7.73;1.33;;;5.30;99.90;4.30;98962;;;;596404;237;24102;-88
2023/12/20 09:19:59;;;;;;;1.47;1.03;;;5.30;99.90;4.30;98952;;;;600940;237;24062;-89
2023/12/20 09:22:27;;;;;;;0.60;0.57;;;5.30;99.90;4.40;98946;;;;595942;237;24076;-89
2023/12/20 09:24:59;;;;;;;5.90;1.10;;;5.30;99.90;4.40;98940;;;;595951;237;24036;-88
2023/12/20 09:27:23;;;;;;;1.67;1.10;;;5.30;99.90;4.30;98942;;;;601686;236;24052;-89
2023/12/20 09:29:55;;;;;;;2.93;1.23;;;5.30;99.90;4.40;98933;;;;598094;236;24089;-90
2023/12/20 09:32:23;;;;;;;1.43;1.33;;;5.40;99.90;4.40;98928;;;;596754;237;24106;-88
2023/12/20 09:34:52;;;;;;;7.77;0.90;;;5.40;99.90;4.50;98922;;;;603474;237;24029;-85
2023/12/20 09:37:20;;;;;;;1.97;1.07;;;5.40;99.90;4.60;98916;;;;605590;237;24076;-88
2023/12/20 09:39:47;;;;;;;3.80;1.70;;;5.50;99.90;4.70;98914;;;;596166;237;24030;-88
2023/12/20 09:42:15;;;;;;;1.63;1.00;;;5.60;99.90;4.70;98906;;;;596500;237;24040;-88
2023/12/20 09:44:44;;;;;;;1.33;1.23;;;5.60;99.90;4.80;98891;;;;604801;237;24039;-87
2023/12/20 09:47:11;;;;;;;3.27;1.10;;;5.70;99.90;4.90;98897;;;;595857;237;24045;-87
2023/12/20 09:49:39;;;;;;;2.30;1.20;;;5.80;99.90;4.90;98900;;;;594823;237;24046;-88
2023/12/20 09:52:07;;;;;;;1.60;1.40;;;5.80;99.90;4.90;98887;;;;596283;237;24103;-87
2023/12/20 09:54:36;;;;;;;2.93;1.27;;;5.80;99.90;4.90;98879;;;;605246;237;24058;-87
2023/12/20 09:57:07;;;;;;;1.80;1.67;;;5.80;99.90;4.90;98874;;;;601710;237;24084;-87
2023/12/20 09:59:31;;;;;;;3.77;0.80;;;5.80;99.90;4.90;98879;;;;605408;237;24057;-88
2023/12/20 10:01:59;;;;;;;2.40;1.53;;;5.80;99.90;4.90;98873;;;;596365;237;24029;-87
2023/12/20 10:04:27;;;;;;;6.63;1.30;;;5.80;99.90;4.90;98867;;;;605415;234;24063;-87
2023/12/20 10:06:59;;;;;;;4.70;1.70;;;5.90;99.90;5.00;98868;;;;599973;237;34991;-88
2023/12/20 10:09:27;;;;;;;7.17;1.80;;;5.90;99.90;5.10;98857;;;;596054;237;24022;-84
2023/12/20 10:11:52;;;;;;;5.67;1.70;;;6.00;99.90;5.20;98855;;;;595948;237;24152;-85
2023/12/20 10:14:20;;;;;;;3.07;1.37;;;6.10;99.90;5.30;98862;;;;605587;237;24050;-85
2023/12/20 10:16:48;;;;;;;2.33;1.87;;;6.20;99.90;5.30;98852;;;;596424;237;24038;-88
2023/12/20 10:19:15;;;;;;;8.43;1.70;;;6.20;99.90;5.30;98844;;;;596795;237;24019;-88
2023/12/20 10:21:46;;;;;;;3.00;1.70;;;6.20;99.90;5.30;98837;;;;606034;234;24040;-88
2023/12/20 10:24:20;;;;;;;2.47;1.20;;;6.30;99.90;5.30;98834;;;;596752;237;24023;-87
2023/12/20 10:26:48;;;;;;;2.20;1.23;;;6.30;99.90;5.30;98828;;;;596731;237;24034;-88
2023/12/20 10:29:16;;;;;;;5.43;1.63;;;6.20;99.90;5.30;98821;;;;596882;237;24024;-88
2023/12/20 10:31:45;;;;;;;3.27;1.10;;;6.20;99.90;5.30;98831;;;;596577;237;24089;-89
2023/12/20 10:34:12;;;;;;;10.43;1.70;;;6.20;99.90;5.20;98814;;;;596406;237;24040;-90
2023/12/20 10:36:42;;;;;;;7.70;1.03;;;6.20;99.90;5.20;98813;;;;596733;237;24045;-89
2023/12/20 10:39:11;;;;;;;5.37;1.40;;;6.10;99.90;5.10;98813;;;;606643;235;24046;-89
2023/12/20 10:41:41;;;;;;;1.73;1.53;;;6.10;99.90;5.10;98816;;;;596916;236;24101;-88
2023/12/20 10:44:06;;;;;;;1.60;1.00;;;6.00;99.90;5.10;98814;;;;602402;237;24035;-90
2023/12/20 10:46:34;;;;;;;2.87;1.30;;;6.00;99.90;5.00;98807;;;;594855;237;24017;-89
2023/12/20 10:49:04;;;;;;;5.03;1.37;;;5.90;99.90;5.00;98799;;;;601853;237;24081;-91
2023/12/20 10:51:33;;;;;;;3.73;1.50;;;5.90;99.90;5.00;98799;;;;595825;237;24042;-89
2023/12/20 10:54:00;;;;;;;1.20;1.17;;;5.90;99.90;4.90;98793;;;;593638;237;24028;-89
2023/12/20 10:56:28;;;;;;;4.40;2.00;;;5.80;99.90;5.00;98778;;;;595937;237;24031;-88
2023/12/20 10:58:59;;;;;;;3.83;1.27;;;5.80;99.90;5.00;98776;;;;595894;237;24027;-88
2023/12/20 11:01:28;;;;;;;5.23;1.80;;;5.90;99.90;5.00;98770;;;;602005;237;24049;-88
2023/12/20 11:03:57;;;;;;;9.07;2.27;;;5.90;99.90;5.00;98773;;;;605241;234;24067;-90
2023/12/20 11:06:30;;;;;;;3.67;2.37;;;5.90;99.90;5.00;98759;;;;605053;237;24040;-88
2023/12/20 11:09:21;;;;;;;1.93;1.83;;;5.90;99.90;5.00;98742;;;;600098;235;24035;-89
2023/12/20 11:12:21;;;;;;;5.03;1.63;;;6.00;99.90;5.10;98751;;;;600802;237;24025;-89
2023/12/20 11:14:48;;;;;;;9.17;1.30;;;6.00;99.90;5.20;98735;;;;595652;237;24029;-89
2023/12/20 11:17:17;;;;;;;4.57;1.83;;;6.00;99.90;5.30;98734;;;;604281;237;24044;-89
2023/12/20 11:19:53;;;;;;;2.03;1.43;;;6.10;99.90;5.30;98740;;;;596165;237;24020;-88
2023/12/20 11:22:25;;;;;;;2.13;1.40;;;6.10;99.90;5.20;98730;;;;602029;237;24050;-89
2023/12/20 11:24:49;;;;;;;4.10;2.20;;;6.10;99.90;5.30;98724;;;;594871;237;24069;-88
2023/12/20 11:27:17;;;;;;;8.70;2.37;;;6.10;99.90;5.30;98721;;;;595561;237;24017;-90
2023/12/20 11:29:45;;;;;;;7.40;1.87;;;6.20;99.90;5.30;98717;;;;595416;237;24032;-89
2023/12/20 11:32:31;;;;;;;1.90;1.80;;;6.10;99.90;5.30;98716;;;;604812;237;24042;-88
2023/12/20 11:35:01;;;;;;;2.83;1.77;;;6.20;99.90;5.30;98715;;;;595807;237;25158;-90
2023/12/20 11:37:32;;;;;;;5.13;2.27;;;6.20;99.90;5.30;98709;;;;595834;237;25133;-90
2023/12/20 11:40:07;;;;;;;2.50;1.97;;;6.20;99.90;5.30;98704;;;;595806;237;24047;-88